默认 日期 大小 文件数 浏览量 最新下载 xml
from磁力链接相关资源由用户搜索指令自动获取,结果来源于网络,本站不存储任何资料,亦不承担任何责任,请于24小时内删除,搜索到149756个磁力,显示前4000条数据,用时12ms。
    {"Info.nfo": 4674, "cover.jpg": 34716, "07 - Joanne Shaw Taylor - Jealousy.mp3": 17503380, "12 - Joanne Shaw Taylor - Going Home.mp3": 13740702, "01 - Joanne Shaw Taylor - Soul Station.mp3": 14560947, "02 - Joanne Shaw Taylor - Tied & Bound.mp3": 16414596, ...
创建时间: 2018-10-28 20:07:53 大小:178.69 MB 文件数量:14 热度:28 最近下载:2025-08-22 22:23:02
    ... .mp3": 10523810, "00. - Tracklist-Info. from AGR.txt": 1508, "05. Hells ... - Moonbeam Presents Space Odyssey - Mars from AGR (2014) MP3, 320 kbps ... - Moonbeam Presents Space Odyssey - Mars from AGR (2014) MP3, 320 kbps ...
创建时间: 2018-10-28 20:08:34 大小:305.45 MB 文件数量:29 热度:24 最近下载:2025-09-29 12:12:03
    ... .mp3": 7621461, "Saint Etienne - Tales From Turnpike House.m3u": 327}
创建时间: 2018-10-28 20:08:35 大小:68.25 MB 文件数量:14 热度:23 最近下载:2025-03-29 20:35:03
    {"RARBG.txt": 30, "21EroticAnal.18.02.03.Kiara.Night.Loving.You.From.Behind.XXX.SD.MP4-KLEENEX.mp4": 223557459}
创建时间: 2018-10-28 20:09:58 大小:213.2 MB 文件数量:2 热度:44 最近下载:2025-10-16 16:39:01
    ... Artists – Frankie Knuckles pres. Tales From Beyond the Tone Arm (The ... Artists – Frankie Knuckles pres. Tales From Beyond the Tone Arm (The ...
创建时间: 2018-10-28 20:10:05 大小:811.77 MB 文件数量:29 热度:45 最近下载:2025-08-03 03:25:01
    {"Read Me.txt": 80, "TutsGalaxy.com.txt": 41, "Torrent_downloaded_from_Demonoid_-_www.demonoid.pw_.txt": 59, "Learn React & Redux From Beginner To Paid Professional.zip": 3768787120}
创建时间: 2018-10-28 20:10:18 大小:3.51 GB 文件数量:4 热度:25 最近下载:2025-09-09 21:02:30
    ... ": 10030699, "Info-Thievery Corporation - Treasures from the Temple.nfo": 3129, "04 ...
创建时间: 2018-10-28 20:10:54 大小:114.3 MB 文件数量:14 热度:19 最近下载:2025-04-26 20:26:02
    ... "038 Upload sensor values from nodemcu(esp8266) to Spark ... "037 Upload sensor values from arduino to Carriots with Ethernet ... "039 Upload sensor values from nodemcu(esp8266) to Adafruit_Io using ... , "047 BLYNK Setup Instruction from BLYNK.html": 7465, "043 ...
创建时间: 2018-10-28 20:12:19 大小:1.72 GB 文件数量:101 热度:24 最近下载:2025-02-07 06:19:01
    {"GTA_EFLC_1.iso": 4688478208, "GTA_EFLC_2.iso": 4648402944}
创建时间: 2018-10-28 20:12:40 大小:8.7 GB 文件数量:2 热度:33 最近下载:2025-08-06 21:04:03
    {"Wolfmother - Live from London [2009].mkv": 4507144385}
创建时间: 2018-10-28 20:12:47 大小:4.2 GB 文件数量:1 热度:18 最近下载:2025-08-04 10:46:07
    ... , "The Collection 30 Years Ago From Ovvod7 (1986) 2.png": 370579 ... , "The Collection 30 Years Ago From Ovvod7 (1986) 2-2.png ... , "The Collection 30 Years Ago From Ovvod7 (1986) 2 - CD - 18 ...
创建时间: 2018-10-28 20:12:48 大小:189.38 MB 文件数量:19 热度:31 最近下载:2025-10-08 02:20:02
    ... ].flac": 330033719, "Jethro Tull - Songs From The Wood [Stereo Steven Wilson ... ].cue": 2218, "Jethro Tull - Songs From The Wood [Stereo Steven Wilson ... ].log": 8440, "Jethro Tull - Songs From The Wood [Stereo Steven Wilson ...
创建时间: 2018-10-28 20:12:53 大小:1.06 GB 文件数量:17 热度:13 最近下载:2024-05-09 11:35:01
    {"OpenSans_Bold.tff": 381674, "OpenSans_Regular.tff": 1165312, "!IMPORTANT NOTICE!.txt": 85, "Add PDF OpenSans fonts.bat": 263, "the i2c bus : from theory to practice.pdf": 5244077}
创建时间: 2018-10-28 20:13:42 大小:6.48 MB 文件数量:5 热度:18 最近下载:2025-07-22 02:51:02
    {"01 Part 1.mp3": 47266874, "02 Part 2.mp3": 46719231, "03 Part 3.mp3": 47829951, "04 Part 4.mp3": 50314719, "Torrent downloaded from demonoid.pw.txt": 46, "Torrent downloaded from Demonoid.ooo.txt": 48}
创建时间: 2018-10-28 20:16:05 大小:183.23 MB 文件数量:6 热度:24 最近下载:2025-09-16 08:14:01
    ... Worlds - Part I. Enlightenment from Beyond - cover.png": 3920024 ... - Part I. Enlightenment from Beyond - 02 The Nameless ... - Part I. Enlightenment from Beyond - 04 Disrupted Incarnation ... Worlds - Part I. Enlightenment from Beyond - 03 Interdimensional Predation ...
创建时间: 2018-10-28 20:16:09 大小:325.44 MB 文件数量:13 热度:24 最近下载:2025-09-19 11:33:02
    {"1 (1).jpg": 577168, "1 (2).jpg": 405195, "1 (3).JPG": 995501, "1 (4).JPG": 904568, "1 (5).jpg": 327027, "1 (6).JPG": 816317, "1 (7).jpg": 359188, "1 (8).jpg": 385340, "1 (10).jpg": 371214, "1 (11).jpg": 582000, "1 (12).jpg": 583871, "1 (13).jpg": 445385, ...
创建时间: 2018-10-28 20:17:23 大小:386.68 MB 文件数量:860 热度:32 最近下载:2025-08-06 09:54:02
    ... doctor.who.s17e03.the.creature.from.the.pit.part.1. ... doctor.who.s17e03.the.creature.from.the.pit.part.1- ... doctor.who.s17e03.the.creature.from.the.pit.part.1. ... doctor.who.s17e03.the.creature.from.the.pit.part.1. ... doctor.who.s17e03.the.creature.from.the.pit.part.1. ...
创建时间: 2018-10-28 20:18:02 大小:174.91 MB 文件数量:7 热度:30 最近下载:2025-10-17 09:52:01
    {"Hazel Dew.mp4": 532690345, "Merri Meys.mp4": 579079654, "Allex Trasks.mp4": 434396054, "Jess Lincoln.mp4": 524234754}
创建时间: 2018-10-28 20:18:02 大小:1.93 GB 文件数量:4 热度:32 最近下载:2025-10-13 16:22:01
    {"Files": {"j_candi.avi": 63976600, "Juliana_2012-02-06.avi": 85927058, "Juliana_2012-04-13.avi": 262260974, "JulianaCandi.18.09.12.avi": 118778508, "JulianaCandi_2012-02-03.avi": 109554732}, "Screens": {"j_candi.jpg": 340172, "Julian_2012-07-02.jpg": ...
创建时间: 2018-10-28 20:18:06 大小:1.16 GB 文件数量:24 热度:46 最近下载:2025-08-05 20:09:03
    ... , "screen0004.png": 365035}, "Torrent Downloaded From WWW.TORRENTING.COM.txt": 84 ... , "Mama.June.From.Not.to.Hot.S01E01.Thin ... -mSD.mkv": 295581055, "Mama.June.From.Not.to.Hot.S01E01.Thin ...
创建时间: 2018-10-28 20:20:26 大小:282.86 MB 文件数量:7 热度:27 最近下载:2025-09-30 09:41:01